sensor_id;sensor_type;location;lat;lon;timestamp;temperature;humidity
4548;DHT22;2286;51.570;7.090;2022-10-16T00:02:13;12.60;99.90
4548;DHT22;2286;51.570;7.090;2022-10-16T00:04:40;12.50;99.90
4548;DHT22;2286;51.570;7.090;2022-10-16T00:07:07;12.40;99.90
4548;DHT22;2286;51.570;7.090;2022-10-16T00:09:34;12.40;99.90
4548;DHT22;2286;51.570;7.090;2022-10-16T00:12:02;12.40;99.90
4548;DHT22;2286;51.570;7.090;2022-10-16T00:14:32;12.40;99.90
4548;DHT22;2286;51.570;7.090;2022-10-16T00:16:59;12.40;99.90
4548;DHT22;2286;51.570;7.090;2022-10-16T00:19:26;12.40;99.90
4548;DHT22;2286;51.570;7.090;2022-10-16T00:21:52;12.30;99.90
4548;DHT22;2286;51.570;7.090;2022-10-16T00:24:19;12.20;99.90
4548;DHT22;2286;51.570;7.090;2022-10-16T00:26:49;12.30;99.90
4548;DHT22;2286;51.570;7.090;2022-10-16T00:29:17;12.30;99.90
4548;DHT22;2286;51.570;7.090;2022-10-16T00:31:44;12.30;99.90
4548;DHT22;2286;51.570;7.090;2022-10-16T00:34:11;12.20;99.90
4548;DHT22;2286;51.570;7.090;2022-10-16T00:36:38;12.30;99.90
4548;DHT22;2286;51.570;7.090;2022-10-16T00:39:05;12.30;99.90
4548;DHT22;2286;51.570;7.090;2022-10-16T00:41:32;12.40;99.90
4548;DHT22;2286;51.570;7.090;2022-10-16T00:44:01;12.30;99.90
4548;DHT22;2286;51.570;7.090;2022-10-16T00:46:38;12.30;99.90
4548;DHT22;2286;51.570;7.090;2022-10-16T00:49:08;12.30;99.90
4548;DHT22;2286;51.570;7.090;2022-10-16T00:51:36;12.30;99.90
4548;DHT22;2286;51.570;7.090;2022-10-16T00:54:09;12.30;99.90
4548;DHT22;2286;51.570;7.090;2022-10-16T00:56:36;12.30;99.90
4548;DHT22;2286;51.570;7.090;2022-10-16T00:59:06;12.30;99.90
4548;DHT22;2286;51.570;7.090;2022-10-16T01:01:36;12.40;99.90
4548;DHT22;2286;51.570;7.090;2022-10-16T01:04:03;12.50;99.90
4548;DHT22;2286;51.570;7.090;2022-10-16T01:06:36;12.50;99.90
4548;DHT22;2286;51.570;7.090;2022-10-16T01:09:13;12.50;99.90
4548;DHT22;2286;51.570;7.090;2022-10-16T01:11:49;12.50;99.90
4548;DHT22;2286;51.570;7.090;2022-10-16T01:14:22;12.60;99.90
4548;DHT22;2286;51.570;7.090;2022-10-16T01:16:59;12.60;99.90
4548;DHT22;2286;51.570;7.090;2022-10-16T01:19:40;12.70;99.90
4548;DHT22;2286;51.570;7.090;2022-10-16T01:22:11;12.70;99.90
4548;DHT22;2286;51.570;7.090;2022-10-16T01:24:39;12.70;99.90
4548;DHT22;2286;51.570;7.090;2022-10-16T01:27:13;12.60;99.90
4548;DHT22;2286;51.570;7.090;2022-10-16T01:29:50;12.70;99.90
4548;DHT22;2286;51.570;7.090;2022-10-16T01:32:32;12.80;99.90
4548;DHT22;2286;51.570;7.090;2022-10-16T01:35:03;12.60;99.90
4548;DHT22;2286;51.570;7.090;2022-10-16T01:37:35;12.60;99.90
4548;DHT22;2286;51.570;7.090;2022-10-16T01:40:06;12.60;99.90
4548;DHT22;2286;51.570;7.090;2022-10-16T01:42:38;12.60;99.90
4548;DHT22;2286;51.570;7.090;2022-10-16T01:45:07;12.50;99.90
4548;DHT22;2286;51.570;7.090;2022-10-16T01:47:37;12.40;99.90
4548;DHT22;2286;51.570;7.090;2022-10-16T01:50:06;12.40;99.90
4548;DHT22;2286;51.570;7.090;2022-10-16T01:52:36;12.30;99.90
4548;DHT22;2286;51.570;7.090;2022-10-16T01:55:06;12.40;99.90
4548;DHT22;2286;51.570;7.090;2022-10-16T01:57:38;12.30;99.90
4548;DHT22;2286;51.570;7.090;2022-10-16T02:00:10;12.30;99.90
4548;DHT22;2286;51.570;7.090;2022-10-16T02:02:38;12.30;99.90
4548;DHT22;2286;51.570;7.090;2022-10-16T02:05:12;12.20;99.90
4548;DHT22;2286;51.570;7.090;2022-10-16T02:07:42;12.10;99.90
4548;DHT22;2286;51.570;7.090;2022-10-16T02:10:09;12.10;99.90
4548;DHT22;2286;51.570;7.090;2022-10-16T02:12:40;12.10;99.90
4548;DHT22;2286;51.570;7.090;2022-10-16T02:15:08;12.00;99.90
4548;DHT22;2286;51.570;7.090;2022-10-16T02:17:35;11.90;99.90
4548;DHT22;2286;51.570;7.090;2022-10-16T02:20:03;12.10;99.90
4548;DHT22;2286;51.570;7.090;2022-10-16T02:22:34;12.10;99.90
4548;DHT22;2286;51.570;7.090;2022-10-16T02:25:06;12.10;99.90
4548;DHT22;2286;51.570;7.090;2022-10-16T02:27:37;12.20;99.90
4548;DHT22;2286;51.570;7.090;2022-10-16T02:30:10;12.30;99.90
4548;DHT22;2286;51.570;7.090;2022-10-16T02:32:40;12.30;99.90
4548;DHT22;2286;51.570;7.090;2022-10-16T02:35:09;12.30;99.90
4548;DHT22;2286;51.570;7.090;2022-10-16T02:37:36;12.30;99.90
4548;DHT22;2286;51.570;7.090;2022-10-16T02:40:06;12.30;99.90
4548;DHT22;2286;51.570;7.090;2022-10-16T02:42:34;12.40;99.90
4548;DHT22;2286;51.570;7.090;2022-10-16T02:45:02;12.30;99.90
4548;DHT22;2286;51.570;7.090;2022-10-16T02:47:31;12.30;99.90
4548;DHT22;2286;51.570;7.090;2022-10-16T02:49:58;12.30;99.90
4548;DHT22;2286;51.570;7.090;2022-10-16T02:52:25;12.30;99.90
4548;DHT22;2286;51.570;7.090;2022-10-16T02:54:52;12.20;99.90
4548;DHT22;2286;51.570;7.090;2022-10-16T02:57:19;12.20;99.90
4548;DHT22;2286;51.570;7.090;2022-10-16T02:59:46;12.20;99.90
4548;DHT22;2286;51.570;7.090;2022-10-16T03:02:13;12.10;99.90
4548;DHT22;2286;51.570;7.090;2022-10-16T03:04:41;12.10;99.90
4548;DHT22;2286;51.570;7.090;2022-10-16T03:07:08;12.00;99.90
4548;DHT22;2286;51.570;7.090;2022-10-16T03:09:35;12.00;99.90
4548;DHT22;2286;51.570;7.090;2022-10-16T03:12:03;12.00;99.90
4548;DHT22;2286;51.570;7.090;2022-10-16T03:14:30;12.10;99.90
4548;DHT22;2286;51.570;7.090;2022-10-16T03:16:57;12.10;99.90
4548;DHT22;2286;51.570;7.090;2022-10-16T03:19:24;12.10;99.90
4548;DHT22;2286;51.570;7.090;2022-10-16T03:21:52;12.20;99.90
4548;DHT22;2286;51.570;7.090;2022-10-16T03:24:19;12.20;99.90
4548;DHT22;2286;51.570;7.090;2022-10-16T03:26:46;12.20;99.90
4548;DHT22;2286;51.570;7.090;2022-10-16T03:29:13;12.20;99.90
4548;DHT22;2286;51.570;7.090;2022-10-16T03:31:40;12.20;99.90
4548;DHT22;2286;51.570;7.090;2022-10-16T03:34:07;12.20;99.90
4548;DHT22;2286;51.570;7.090;2022-10-16T03:36:34;12.20;99.90
4548;DHT22;2286;51.570;7.090;2022-10-16T03:39:03;12.30;99.90
4548;DHT22;2286;51.570;7.090;2022-10-16T03:41:30;12.30;99.90
4548;DHT22;2286;51.570;7.090;2022-10-16T03:43:57;12.30;99.90
4548;DHT22;2286;51.570;7.090;2022-10-16T03:46:24;12.30;99.90
4548;DHT22;2286;51.570;7.090;2022-10-16T03:48:51;12.30;99.90
4548;DHT22;2286;51.570;7.090;2022-10-16T03:51:18;12.30;99.90
4548;DHT22;2286;51.570;7.090;2022-10-16T03:53:45;12.30;99.90
4548;DHT22;2286;51.570;7.090;2022-10-16T03:56:13;12.30;99.90
4548;DHT22;2286;51.570;7.090;2022-10-16T03:58:40;12.20;99.90
4548;DHT22;2286;51.570;7.090;2022-10-16T04:01:07;12.20;99.90
4548;DHT22;2286;51.570;7.090;2022-10-16T04:03:34;12.20;99.90
4548;DHT22;2286;51.570;7.090;2022-10-16T04:06:01;12.20;99.90
4548;DHT22;2286;51.570;7.090;2022-10-16T04:08:28;12.30;99.90
4548;DHT22;2286;51.570;7.090;2022-10-16T04:10:55;12.30;99.90
4548;DHT22;2286;51.570;7.090;2022-10-16T04:13:24;12.40;99.90
4548;DHT22;2286;51.570;7.090;2022-10-16T04:15:50;12.50;99.90
4548;DHT22;2286;51.570;7.090;2022-10-16T04:18:17;12.50;99.90
4548;DHT22;2286;51.570;7.090;2022-10-16T04:20:44;12.50;99.90
4548;DHT22;2286;51.570;7.090;2022-10-16T04:23:11;12.40;99.90
4548;DHT22;2286;51.570;7.090;2022-10-16T04:25:38;12.40;99.90
4548;DHT22;2286;51.570;7.090;2022-10-16T04:28:05;12.50;99.90
4548;DHT22;2286;51.570;7.090;2022-10-16T04:30:34;12.50;99.90
4548;DHT22;2286;51.570;7.090;2022-10-16T04:33:00;12.60;99.90
4548;DHT22;2286;51.570;7.090;2022-10-16T04:35:27;12.60;99.90
4548;DHT22;2286;51.570;7.090;2022-10-16T04:37:57;12.50;99.90
4548;DHT22;2286;51.570;7.090;2022-10-16T04:40:24;12.50;99.90
4548;DHT22;2286;51.570;7.090;2022-10-16T04:42:51;12.40;99.90
4548;DHT22;2286;51.570;7.090;2022-10-16T04:45:18;12.50;99.90
4548;DHT22;2286;51.570;7.090;2022-10-16T04:47:46;12.50;99.90
4548;DHT22;2286;51.570;7.090;2022-10-16T04:50:13;12.40;99.90
4548;DHT22;2286;51.570;7.090;2022-10-16T04:52:40;12.40;99.90
4548;DHT22;2286;51.570;7.090;2022-10-16T04:55:07;12.50;99.90
4548;DHT22;2286;51.570;7.090;2022-10-16T04:57:34;12.50;99.90
4548;DHT22;2286;51.570;7.090;2022-10-16T05:00:02;12.50;99.90
4548;DHT22;2286;51.570;7.090;2022-10-16T05:02:29;12.50;99.90
4548;DHT22;2286;51.570;7.090;2022-10-16T05:04:58;12.40;99.90
4548;DHT22;2286;51.570;7.090;2022-10-16T05:07:25;12.40;99.90
4548;DHT22;2286;51.570;7.090;2022-10-16T05:09:52;12.50;99.90
4548;DHT22;2286;51.570;7.090;2022-10-16T05:12:19;12.60;99.90
4548;DHT22;2286;51.570;7.090;2022-10-16T05:14:46;12.60;99.90
4548;DHT22;2286;51.570;7.090;2022-10-16T05:17:13;12.60;99.90
4548;DHT22;2286;51.570;7.090;2022-10-16T05:19:40;12.60;99.90
4548;DHT22;2286;51.570;7.090;2022-10-16T05:22:08;12.60;99.90
4548;DHT22;2286;51.570;7.090;2022-10-16T05:24:35;12.70;99.90
4548;DHT22;2286;51.570;7.090;2022-10-16T05:27:02;12.70;99.90
4548;DHT22;2286;51.570;7.090;2022-10-16T05:29:29;12.60;99.90
4548;DHT22;2286;51.570;7.090;2022-10-16T05:31:56;12.60;99.90
4548;DHT22;2286;51.570;7.090;2022-10-16T05:34:23;12.60;99.90
4548;DHT22;2286;51.570;7.090;2022-10-16T05:36:50;12.70;99.90
4548;DHT22;2286;51.570;7.090;2022-10-16T05:39:18;12.60;99.90
4548;DHT22;2286;51.570;7.090;2022-10-16T05:41:45;12.60;99.90
4548;DHT22;2286;51.570;7.090;2022-10-16T05:44:12;12.60;99.90
4548;DHT22;2286;51.570;7.090;2022-10-16T05:46:39;12.70;99.90
4548;DHT22;2286;51.570;7.090;2022-10-16T05:49:06;12.80;99.90
4548;DHT22;2286;51.570;7.090;2022-10-16T05:51:33;12.80;99.90
4548;DHT22;2286;51.570;7.090;2022-10-16T05:54:00;12.80;99.90
4548;DHT22;2286;51.570;7.090;2022-10-16T05:56:28;12.90;99.90
4548;DHT22;2286;51.570;7.090;2022-10-16T05:58:55;12.90;99.90
4548;DHT22;2286;51.570;7.090;2022-10-16T06:01:22;12.80;99.90
4548;DHT22;2286;51.570;7.090;2022-10-16T06:03:50;12.80;99.90
4548;DHT22;2286;51.570;7.090;2022-10-16T06:06:19;12.70;99.90
4548;DHT22;2286;51.570;7.090;2022-10-16T06:08:47;12.70;99.90
4548;DHT22;2286;51.570;7.090;2022-10-16T06:11:16;12.80;99.90
4548;DHT22;2286;51.570;7.090;2022-10-16T06:13:45;12.80;99.90
4548;DHT22;2286;51.570;7.090;2022-10-16T06:16:15;12.70;99.90
4548;DHT22;2286;51.570;7.090;2022-10-16T06:18:42;12.80;99.90
4548;DHT22;2286;51.570;7.090;2022-10-16T06:21:11;12.80;99.90
4548;DHT22;2286;51.570;7.090;2022-10-16T06:23:39;12.70;99.90
4548;DHT22;2286;51.570;7.090;2022-10-16T06:26:06;12.80;99.90
4548;DHT22;2286;51.570;7.090;2022-10-16T06:28:34;12.80;99.90
4548;DHT22;2286;51.570;7.090;2022-10-16T06:31:03;12.80;99.90
4548;DHT22;2286;51.570;7.090;2022-10-16T06:33:31;12.70;99.90
4548;DHT22;2286;51.570;7.090;2022-10-16T06:36:01;12.70;99.90
4548;DHT22;2286;51.570;7.090;2022-10-16T06:38:29;12.80;99.90
4548;DHT22;2286;51.570;7.090;2022-10-16T06:40:56;12.80;99.90
4548;DHT22;2286;51.570;7.090;2022-10-16T06:43:23;12.80;99.90
4548;DHT22;2286;51.570;7.090;2022-10-16T06:45:51;12.80;99.90
4548;DHT22;2286;51.570;7.090;2022-10-16T06:48:21;12.80;99.90
4548;DHT22;2286;51.570;7.090;2022-10-16T06:50:58;12.90;99.90
4548;DHT22;2286;51.570;7.090;2022-10-16T06:53:27;13.00;99.90
4548;DHT22;2286;51.570;7.090;2022-10-16T06:55:54;12.90;99.90
4548;DHT22;2286;51.570;7.090;2022-10-16T06:58:21;12.90;99.90
4548;DHT22;2286;51.570;7.090;2022-10-16T07:00:48;12.90;99.90
4548;DHT22;2286;51.570;7.090;2022-10-16T07:03:15;12.90;99.90
4548;DHT22;2286;51.570;7.090;2022-10-16T07:05:44;12.90;99.90
4548;DHT22;2286;51.570;7.090;2022-10-16T07:08:11;12.80;99.90
4548;DHT22;2286;51.570;7.090;2022-10-16T07:10:38;12.90;99.90
4548;DHT22;2286;51.570;7.090;2022-10-16T07:13:05;13.00;99.90
4548;DHT22;2286;51.570;7.090;2022-10-16T07:15:33;13.00;99.90
4548;DHT22;2286;51.570;7.090;2022-10-16T07:18:00;13.10;99.90
4548;DHT22;2286;51.570;7.090;2022-10-16T07:20:27;13.20;99.90
4548;DHT22;2286;51.570;7.090;2022-10-16T07:22:55;13.20;99.90
4548;DHT22;2286;51.570;7.090;2022-10-16T07:25:22;13.20;99.90
4548;DHT22;2286;51.570;7.090;2022-10-16T07:27:49;13.20;99.90
4548;DHT22;2286;51.570;7.090;2022-10-16T07:30:16;13.30;99.90
4548;DHT22;2286;51.570;7.090;2022-10-16T07:32:43;13.30;99.90
4548;DHT22;2286;51.570;7.090;2022-10-16T07:35:10;13.30;99.90
4548;DHT22;2286;51.570;7.090;2022-10-16T07:37:37;13.20;99.90
4548;DHT22;2286;51.570;7.090;2022-10-16T07:40:07;13.30;99.90
4548;DHT22;2286;51.570;7.090;2022-10-16T07:42:34;13.30;99.90
4548;DHT22;2286;51.570;7.090;2022-10-16T07:45:01;13.40;99.90
4548;DHT22;2286;51.570;7.090;2022-10-16T07:47:28;13.50;99.90
4548;DHT22;2286;51.570;7.090;2022-10-16T07:49:55;13.60;99.90
4548;DHT22;2286;51.570;7.090;2022-10-16T07:52:22;13.70;99.90
4548;DHT22;2286;51.570;7.090;2022-10-16T07:54:49;13.70;99.90
4548;DHT22;2286;51.570;7.090;2022-10-16T07:57:17;13.80;99.90
4548;DHT22;2286;51.570;7.090;2022-10-16T07:59:45;13.90;99.90
4548;DHT22;2286;51.570;7.090;2022-10-16T08:02:12;14.00;99.90
4548;DHT22;2286;51.570;7.090;2022-10-16T08:04:39;14.10;99.90
4548;DHT22;2286;51.570;7.090;2022-10-16T08:07:07;14.20;99.90
4548;DHT22;2286;51.570;7.090;2022-10-16T08:09:34;14.30;99.90
4548;DHT22;2286;51.570;7.090;2022-10-16T08:12:01;14.30;59.70
4548;DHT22;2286;51.570;7.090;2022-10-16T08:14:31;14.50;1.00
4548;DHT22;2286;51.570;7.090;2022-10-16T08:16:58;14.50;1.00
4548;DHT22;2286;51.570;7.090;2022-10-16T08:19:24;14.60;1.00
4548;DHT22;2286;51.570;7.090;2022-10-16T08:21:51;14.60;1.00
4548;DHT22;2286;51.570;7.090;2022-10-16T08:24:18;14.60;1.00
4548;DHT22;2286;51.570;7.090;2022-10-16T08:26:45;14.70;1.00
4548;DHT22;2286;51.570;7.090;2022-10-16T08:29:13;14.80;99.90
4548;DHT22;2286;51.570;7.090;2022-10-16T08:31:42;14.90;57.80
4548;DHT22;2286;51.570;7.090;2022-10-16T08:34:09;14.90;99.90
4548;DHT22;2286;51.570;7.090;2022-10-16T08:36:36;15.10;1.00
4548;DHT22;2286;51.570;7.090;2022-10-16T08:39:03;15.20;1.00
4548;DHT22;2286;51.570;7.090;2022-10-16T08:44:58;15.30;99.90
4548;DHT22;2286;51.570;7.090;2022-10-16T08:47:39;15.40;99.90
4548;DHT22;2286;51.570;7.090;2022-10-16T08:50:12;15.60;1.00
4548;DHT22;2286;51.570;7.090;2022-10-16T08:52:43;15.60;99.90
4548;DHT22;2286;51.570;7.090;2022-10-16T08:55:20;15.70;99.90
4548;DHT22;2286;51.570;7.090;2022-10-16T08:57:50;15.80;99.90
4548;DHT22;2286;51.570;7.090;2022-10-16T09:00:18;15.80;99.90
4548;DHT22;2286;51.570;7.090;2022-10-16T09:02:53;15.80;99.90
4548;DHT22;2286;51.570;7.090;2022-10-16T09:05:40;15.80;99.90
4548;DHT22;2286;51.570;7.090;2022-10-16T09:08:13;15.90;99.90
4548;DHT22;2286;51.570;7.090;2022-10-16T09:10:51;16.10;1.00
4548;DHT22;2286;51.570;7.090;2022-10-16T09:13:26;16.20;99.90
4548;DHT22;2286;51.570;7.090;2022-10-16T09:15:58;16.30;99.90
4548;DHT22;2286;51.570;7.090;2022-10-16T09:18:34;16.60;99.90
4548;DHT22;2286;51.570;7.090;2022-10-16T09:21:10;16.80;2.80
4548;DHT22;2286;51.570;7.090;2022-10-16T09:23:39;16.70;1.00
4548;DHT22;2286;51.570;7.090;2022-10-16T09:26:11;16.70;99.90
4548;DHT22;2286;51.570;7.090;2022-10-16T09:28:38;17.20;71.80
4548;DHT22;2286;51.570;7.090;2022-10-16T09:31:05;17.60;1.00
4548;DHT22;2286;51.570;7.090;2022-10-16T09:33:38;17.90;1.00
4548;DHT22;2286;51.570;7.090;2022-10-16T09:36:06;18.20;99.90
4548;DHT22;2286;51.570;7.090;2022-10-16T09:38:34;18.40;99.90
4548;DHT22;2286;51.570;7.090;2022-10-16T09:41:03;18.30;54.80
4548;DHT22;2286;51.570;7.090;2022-10-16T09:43:41;18.20;99.90
4548;DHT22;2286;51.570;7.090;2022-10-16T09:46:22;18.20;99.90
4548;DHT22;2286;51.570;7.090;2022-10-16T09:48:53;18.60;8.10
4548;DHT22;2286;51.570;7.090;2022-10-16T09:51:23;19.10;1.00
4548;DHT22;2286;51.570;7.090;2022-10-16T09:53:54;19.30;1.00
4548;DHT22;2286;51.570;7.090;2022-10-16T09:56:23;19.60;1.00
4548;DHT22;2286;51.570;7.090;2022-10-16T09:58:51;20.20;1.00
4548;DHT22;2286;51.570;7.090;2022-10-16T10:01:19;20.80;99.90
4548;DHT22;2286;51.570;7.090;2022-10-16T10:03:47;20.20;99.90
4548;DHT22;2286;51.570;7.090;2022-10-16T10:06:25;20.20;99.90
4548;DHT22;2286;51.570;7.090;2022-10-16T10:08:58;20.00;99.90
4548;DHT22;2286;51.570;7.090;2022-10-16T10:11:39;20.50;99.90
4548;DHT22;2286;51.570;7.090;2022-10-16T10:14:17;20.60;99.90
4548;DHT22;2286;51.570;7.090;2022-10-16T10:16:44;21.30;99.90
4548;DHT22;2286;51.570;7.090;2022-10-16T10:19:14;22.30;99.90
4548;DHT22;2286;51.570;7.090;2022-10-16T10:21:43;22.10;99.90
4548;DHT22;2286;51.570;7.090;2022-10-16T10:24:12;21.00;99.90
4548;DHT22;2286;51.570;7.090;2022-10-16T10:26:43;20.40;99.90
4548;DHT22;2286;51.570;7.090;2022-10-16T10:29:20;20.50;99.90
4548;DHT22;2286;51.570;7.090;2022-10-16T10:31:58;20.70;99.90
4548;DHT22;2286;51.570;7.090;2022-10-16T10:34:43;20.80;99.90
4548;DHT22;2286;51.570;7.090;2022-10-16T10:37:33;20.80;99.90
4548;DHT22;2286;51.570;7.090;2022-10-16T10:40:15;20.80;99.90
4548;DHT22;2286;51.570;7.090;2022-10-16T10:42:50;20.30;99.90
4548;DHT22;2286;51.570;7.090;2022-10-16T10:45:26;19.80;99.90
4548;DHT22;2286;51.570;7.090;2022-10-16T10:48:03;19.40;99.90
4548;DHT22;2286;51.570;7.090;2022-10-16T10:50:39;19.30;99.90
4548;DHT22;2286;51.570;7.090;2022-10-16T10:53:18;19.30;99.90
4548;DHT22;2286;51.570;7.090;2022-10-16T10:55:52;19.60;99.90
4548;DHT22;2286;51.570;7.090;2022-10-16T11:01:14;22.70;99.90
4548;DHT22;2286;51.570;7.090;2022-10-16T11:03:58;23.50;99.90
4548;DHT22;2286;51.570;7.090;2022-10-16T11:06:31;24.10;99.90
4548;DHT22;2286;51.570;7.090;2022-10-16T11:09:09;25.60;99.90
4548;DHT22;2286;51.570;7.090;2022-10-16T11:11:41;25.50;99.90
4548;DHT22;2286;51.570;7.090;2022-10-16T11:14:14;25.70;99.90
4548;DHT22;2286;51.570;7.090;2022-10-16T11:16:47;26.20;99.90
4548;DHT22;2286;51.570;7.090;2022-10-16T11:19:32;26.00;99.90
4548;DHT22;2286;51.570;7.090;2022-10-16T11:22:07;26.40;99.90
4548;DHT22;2286;51.570;7.090;2022-10-16T11:24:42;27.20;99.90
4548;DHT22;2286;51.570;7.090;2022-10-16T11:27:15;28.40;99.90
4548;DHT22;2286;51.570;7.090;2022-10-16T11:29:48;28.10;99.90
4548;DHT22;2286;51.570;7.090;2022-10-16T11:32:22;26.10;99.90
4548;DHT22;2286;51.570;7.090;2022-10-16T11:34:53;25.30;99.90
4548;DHT22;2286;51.570;7.090;2022-10-16T11:37:27;25.70;99.90
4548;DHT22;2286;51.570;7.090;2022-10-16T11:40:00;25.90;99.90
4548;DHT22;2286;51.570;7.090;2022-10-16T11:42:35;24.50;99.90
4548;DHT22;2286;51.570;7.090;2022-10-16T11:45:13;23.60;99.90
4548;DHT22;2286;51.570;7.090;2022-10-16T11:47:53;23.90;99.90
4548;DHT22;2286;51.570;7.090;2022-10-16T11:50:25;25.20;99.90
4548;DHT22;2286;51.570;7.090;2022-10-16T11:52:57;25.30;99.90
4548;DHT22;2286;51.570;7.090;2022-10-16T11:55:32;26.70;99.90
4548;DHT22;2286;51.570;7.090;2022-10-16T11:58:05;27.50;99.90
4548;DHT22;2286;51.570;7.090;2022-10-16T12:00:39;26.30;99.90
4548;DHT22;2286;51.570;7.090;2022-10-16T12:03:14;27.10;99.90
4548;DHT22;2286;51.570;7.090;2022-10-16T12:05:55;27.00;99.90
4548;DHT22;2286;51.570;7.090;2022-10-16T12:08:24;27.80;99.90
4548;DHT22;2286;51.570;7.090;2022-10-16T12:10:53;28.40;99.90
4548;DHT22;2286;51.570;7.090;2022-10-16T12:13:34;28.70;99.90
4548;DHT22;2286;51.570;7.090;2022-10-16T12:16:07;29.80;99.90
4548;DHT22;2286;51.570;7.090;2022-10-16T12:18:46;29.50;99.90
4548;DHT22;2286;51.570;7.090;2022-10-16T12:21:16;30.00;99.90
4548;DHT22;2286;51.570;7.090;2022-10-16T12:23:49;29.70;99.90
4548;DHT22;2286;51.570;7.090;2022-10-16T12:26:26;27.90;99.90
4548;DHT22;2286;51.570;7.090;2022-10-16T12:28:54;28.00;99.90
4548;DHT22;2286;51.570;7.090;2022-10-16T12:31:22;29.10;99.90
4548;DHT22;2286;51.570;7.090;2022-10-16T12:33:57;28.20;99.90
4548;DHT22;2286;51.570;7.090;2022-10-16T12:36:29;27.60;99.90
4548;DHT22;2286;51.570;7.090;2022-10-16T12:38:57;26.20;99.90
4548;DHT22;2286;51.570;7.090;2022-10-16T12:41:27;27.10;99.90
4548;DHT22;2286;51.570;7.090;2022-10-16T12:43:55;27.40;99.90
4548;DHT22;2286;51.570;7.090;2022-10-16T12:46:33;26.30;99.90
4548;DHT22;2286;51.570;7.090;2022-10-16T12:49:23;25.90;99.90
4548;DHT22;2286;51.570;7.090;2022-10-16T12:51:56;24.70;99.90
4548;DHT22;2286;51.570;7.090;2022-10-16T12:54:28;24.40;99.90
4548;DHT22;2286;51.570;7.090;2022-10-16T12:57:10;24.60;99.90
4548;DHT22;2286;51.570;7.090;2022-10-16T12:59:51;25.90;99.90
4548;DHT22;2286;51.570;7.090;2022-10-16T13:05:27;27.70;99.90
4548;DHT22;2286;51.570;7.090;2022-10-16T13:08:06;27.00;99.90
4548;DHT22;2286;51.570;7.090;2022-10-16T13:10:40;26.90;99.90
4548;DHT22;2286;51.570;7.090;2022-10-16T13:13:24;27.60;99.90
4548;DHT22;2286;51.570;7.090;2022-10-16T13:16:08;27.90;99.90
4548;DHT22;2286;51.570;7.090;2022-10-16T13:18:44;28.60;99.90
4548;DHT22;2286;51.570;7.090;2022-10-16T13:21:32;28.70;99.90
4548;DHT22;2286;51.570;7.090;2022-10-16T13:24:10;27.70;99.90
4548;DHT22;2286;51.570;7.090;2022-10-16T13:26:44;25.70;99.90
4548;DHT22;2286;51.570;7.090;2022-10-16T13:29:15;25.40;99.90
4548;DHT22;2286;51.570;7.090;2022-10-16T13:31:43;26.60;99.90
4548;DHT22;2286;51.570;7.090;2022-10-16T13:34:14;26.70;99.90
4548;DHT22;2286;51.570;7.090;2022-10-16T13:36:46;25.40;99.90
4548;DHT22;2286;51.570;7.090;2022-10-16T13:39:21;26.60;99.90
4548;DHT22;2286;51.570;7.090;2022-10-16T13:42:01;28.20;99.90
4548;DHT22;2286;51.570;7.090;2022-10-16T13:44:35;28.90;99.90
4548;DHT22;2286;51.570;7.090;2022-10-16T13:47:03;29.20;99.90
4548;DHT22;2286;51.570;7.090;2022-10-16T13:49:30;28.30;99.90
4548;DHT22;2286;51.570;7.090;2022-10-16T13:51:58;27.90;99.90
4548;DHT22;2286;51.570;7.090;2022-10-16T13:54:26;27.90;99.90
4548;DHT22;2286;51.570;7.090;2022-10-16T13:56:55;27.40;99.90
4548;DHT22;2286;51.570;7.090;2022-10-16T13:59:24;26.40;99.90
4548;DHT22;2286;51.570;7.090;2022-10-16T14:01:54;25.60;99.90
4548;DHT22;2286;51.570;7.090;2022-10-16T14:04:23;25.20;99.90
4548;DHT22;2286;51.570;7.090;2022-10-16T14:06:51;25.00;99.90
4548;DHT22;2286;51.570;7.090;2022-10-16T14:09:22;24.40;99.90
4548;DHT22;2286;51.570;7.090;2022-10-16T14:11:54;24.00;99.90
4548;DHT22;2286;51.570;7.090;2022-10-16T14:14:22;24.40;99.90
4548;DHT22;2286;51.570;7.090;2022-10-16T14:16:49;25.20;99.90
4548;DHT22;2286;51.570;7.090;2022-10-16T14:19:22;27.20;99.90
4548;DHT22;2286;51.570;7.090;2022-10-16T14:21:51;28.40;99.90
4548;DHT22;2286;51.570;7.090;2022-10-16T14:24:32;27.20;99.90
4548;DHT22;2286;51.570;7.090;2022-10-16T14:26:59;27.70;99.90
4548;DHT22;2286;51.570;7.090;2022-10-16T14:29:29;27.30;99.90
4548;DHT22;2286;51.570;7.090;2022-10-16T14:31:58;25.90;99.90
4548;DHT22;2286;51.570;7.090;2022-10-16T14:34:29;24.90;99.90
4548;DHT22;2286;51.570;7.090;2022-10-16T14:37:00;24.40;99.90
4548;DHT22;2286;51.570;7.090;2022-10-16T14:39:33;23.70;99.90
4548;DHT22;2286;51.570;7.090;2022-10-16T14:42:00;23.00;99.90
4548;DHT22;2286;51.570;7.090;2022-10-16T14:44:31;22.80;99.90
4548;DHT22;2286;51.570;7.090;2022-10-16T14:47:06;22.70;99.90
4548;DHT22;2286;51.570;7.090;2022-10-16T14:49:35;22.40;99.90
4548;DHT22;2286;51.570;7.090;2022-10-16T14:52:04;22.40;99.90
4548;DHT22;2286;51.570;7.090;2022-10-16T14:54:31;22.50;99.90
4548;DHT22;2286;51.570;7.090;2022-10-16T14:56:59;22.40;99.90
4548;DHT22;2286;51.570;7.090;2022-10-16T14:59:28;22.40;99.90
4548;DHT22;2286;51.570;7.090;2022-10-16T15:01:56;22.40;99.90
4548;DHT22;2286;51.570;7.090;2022-10-16T15:04:23;22.50;99.90
4548;DHT22;2286;51.570;7.090;2022-10-16T15:06:52;22.40;99.90
4548;DHT22;2286;51.570;7.090;2022-10-16T15:09:19;22.20;99.90
4548;DHT22;2286;51.570;7.090;2022-10-16T15:11:46;21.80;99.90
4548;DHT22;2286;51.570;7.090;2022-10-16T15:14:13;21.70;99.90
4548;DHT22;2286;51.570;7.090;2022-10-16T15:16:40;21.60;99.90
4548;DHT22;2286;51.570;7.090;2022-10-16T15:19:07;21.40;99.90
4548;DHT22;2286;51.570;7.090;2022-10-16T15:21:34;21.20;99.90
4548;DHT22;2286;51.570;7.090;2022-10-16T15:24:02;21.10;99.90
4548;DHT22;2286;51.570;7.090;2022-10-16T15:29:05;20.70;99.90
4548;DHT22;2286;51.570;7.090;2022-10-16T15:31:33;20.50;99.90
4548;DHT22;2286;51.570;7.090;2022-10-16T15:34:00;20.40;99.90
4548;DHT22;2286;51.570;7.090;2022-10-16T15:36:32;20.30;99.90
4548;DHT22;2286;51.570;7.090;2022-10-16T15:39:03;20.20;99.90
4548;DHT22;2286;51.570;7.090;2022-10-16T15:41:31;20.10;99.90
4548;DHT22;2286;51.570;7.090;2022-10-16T15:43:58;20.00;99.90
4548;DHT22;2286;51.570;7.090;2022-10-16T15:46:26;20.00;99.90
4548;DHT22;2286;51.570;7.090;2022-10-16T15:48:57;19.80;99.90
4548;DHT22;2286;51.570;7.090;2022-10-16T15:51:24;19.80;99.90
4548;DHT22;2286;51.570;7.090;2022-10-16T15:53:53;19.70;1.00
4548;DHT22;2286;51.570;7.090;2022-10-16T15:56:21;19.70;1.00
4548;DHT22;2286;51.570;7.090;2022-10-16T15:58:51;19.60;1.00
4548;DHT22;2286;51.570;7.090;2022-10-16T16:01:19;19.60;1.00
4548;DHT22;2286;51.570;7.090;2022-10-16T16:03:46;19.40;1.00
4548;DHT22;2286;51.570;7.090;2022-10-16T16:06:13;19.30;1.00
4548;DHT22;2286;51.570;7.090;2022-10-16T16:08:41;19.10;1.00
4548;DHT22;2286;51.570;7.090;2022-10-16T16:11:09;18.90;9.80
4548;DHT22;2286;51.570;7.090;2022-10-16T16:13:38;18.80;99.90
4548;DHT22;2286;51.570;7.090;2022-10-16T16:16:07;18.70;91.60
4548;DHT22;2286;51.570;7.090;2022-10-16T16:18:35;18.50;6.50
4548;DHT22;2286;51.570;7.090;2022-10-16T16:21:02;18.40;1.00
4548;DHT22;2286;51.570;7.090;2022-10-16T16:23:30;18.40;1.00
4548;DHT22;2286;51.570;7.090;2022-10-16T16:26:05;18.20;32.80
4548;DHT22;2286;51.570;7.090;2022-10-16T16:28:33;18.10;99.90
4548;DHT22;2286;51.570;7.090;2022-10-16T16:31:01;18.10;99.90
4548;DHT22;2286;51.570;7.090;2022-10-16T16:33:29;18.00;99.90